Time;durP1;ratioP1;P1;durP2;ratioP2;P2;SDS_P1;SDS_P2;PMS_P1;PMS_P2;Temp;Humidity;BMP_temperature;BMP_pressure;BME280_temperature;BME280_humidity;BME280_pressure;Samples;Min_cycle;Max_cycle;Signal;HPM_P1;HPM_P2
2022/07/21 00:01:51;;;;;;;8.98;2.72;;;24.70;46.70;;;;;;4974233;28;20054;-93
2022/07/21 00:04:17;;;;;;;6.45;2.40;;;24.70;46.80;;;;;;4975258;28;20078;-94
2022/07/21 00:06:44;;;;;;;8.23;2.33;;;24.70;46.80;;;;;;4975034;28;20074;-93
2022/07/21 00:09:11;;;;;;;11.63;2.63;;;24.70;46.80;;;;;;4974461;28;20038;-92
2022/07/21 00:11:38;;;;;;;7.05;2.13;;;24.70;46.80;;;;;;4975795;28;20199;-94
2022/07/21 00:14:08;;;;;;;4.20;2.55;;;24.70;46.90;;;;;;4974653;28;20030;-92
2022/07/21 00:16:34;;;;;;;3.67;1.98;;;24.70;47.00;;;;;;4974806;28;20030;-92
2022/07/21 00:19:00;;;;;;;5.30;2.20;;;24.60;47.10;;;;;;4974711;28;20023;-92
2022/07/21 00:21:27;;;;;;;4.90;2.05;;;24.60;47.20;;;;;;4974713;28;20030;-92
2022/07/21 00:23:52;;;;;;;7.15;2.78;;;24.60;47.30;;;;;;4974366;28;20543;-92
2022/07/21 00:26:18;;;;;;;5.50;2.47;;;24.50;47.50;;;;;;4974200;28;20054;-93
2022/07/21 00:28:43;;;;;;;5.20;2.35;;;24.40;47.80;;;;;;4993518;28;20042;-92
2022/07/21 00:31:09;;;;;;;5.05;2.30;;;24.30;48.00;;;;;;4993822;28;20534;-91
2022/07/21 00:33:35;;;;;;;6.53;2.47;;;24.30;48.10;;;;;;4993772;28;20038;-93
2022/07/21 00:36:00;;;;;;;4.80;1.98;;;24.20;48.00;;;;;;4993953;28;20022;-93
2022/07/21 00:38:26;;;;;;;6.28;2.00;;;24.10;47.90;;;;;;4993879;28;20058;-93
2022/07/21 00:40:53;;;;;;;10.00;2.30;;;24.10;47.80;;;;;;4994050;28;20026;-93
2022/07/21 00:43:19;;;;;;;2.80;1.85;;;24.00;47.90;;;;;;4988290;28;20030;-93
2022/07/21 00:45:44;;;;;;;6.20;2.00;;;23.90;47.90;;;;;;4984364;28;20019;-93
2022/07/21 00:48:10;;;;;;;4.18;1.90;;;23.90;48.20;;;;;;4978968;28;20776;-91
2022/07/21 00:50:36;;;;;;;8.98;2.17;;;23.80;48.40;;;;;;4978825;28;20042;-92
2022/07/21 00:53:02;;;;;;;4.82;1.92;;;23.80;48.50;;;;;;4977673;28;20050;-92
2022/07/21 00:55:27;;;;;;;10.50;1.98;;;23.80;48.90;;;;;;4979177;28;20117;-92
2022/07/21 00:57:53;;;;;;;6.00;1.92;;;23.80;48.90;;;;;;4978024;28;20011;-92
2022/07/21 01:00:31;;;;;;;5.15;2.22;;;23.70;49.10;;;;;;4978534;28;20050;-93
2022/07/21 01:02:57;;;;;;;6.50;1.77;;;23.80;49.20;;;;;;4975158;28;20089;-93
2022/07/21 01:05:23;;;;;;;5.47;1.98;;;23.80;49.20;;;;;;4973611;28;20030;-93
2022/07/21 01:07:51;;;;;;;4.32;1.85;;;23.80;49.20;;;;;;4986152;28;20038;-93
2022/07/21 01:10:20;;;;;;;4.05;2.20;;;23.80;49.40;;;;;;4993580;28;20058;-90
2022/07/21 01:12:46;;;;;;;7.40;2.33;;;23.80;49.50;;;;;;4996205;28;20041;-93
2022/07/21 01:15:14;;;;;;;5.20;2.25;;;23.80;49.60;;;;;;4987628;28;20023;-93
2022/07/21 01:17:41;;;;;;;3.88;2.10;;;23.70;49.80;;;;;;4975144;28;20098;-92
2022/07/21 01:20:10;;;;;;;4.82;2.15;;;23.70;49.80;;;;;;4979505;28;20023;-93
2022/07/21 01:22:38;;;;;;;3.72;2.05;;;23.70;50.00;;;;;;4973944;28;20031;-92
2022/07/21 01:25:05;;;;;;;13.75;2.53;;;23.60;50.20;;;;;;4977336;28;20038;-92
2022/07/21 01:27:30;;;;;;;4.00;1.77;;;23.60;50.40;;;;;;4974198;28;20062;-93
2022/07/21 01:29:57;;;;;;;3.05;2.00;;;23.60;50.90;;;;;;4975341;28;20392;-93
2022/07/21 01:32:23;;;;;;;6.88;2.10;;;23.60;50.90;;;;;;4974088;28;20112;-92
2022/07/21 01:34:49;;;;;;;4.72;2.85;;;23.60;51.30;;;;;;4974396;28;20255;-92
2022/07/21 01:37:19;;;;;;;5.25;2.60;;;23.50;51.00;;;;;;4973710;28;20034;-92
2022/07/21 01:42:31;;;;;;;3.67;1.58;;;23.50;51.60;;;;;;4993916;28;20073;-93
2022/07/21 01:44:57;;;;;;;5.07;2.55;;;23.50;51.60;;;;;;4988404;28;20022;-93
2022/07/21 01:47:23;;;;;;;5.53;2.38;;;23.40;52.00;;;;;;4973314;28;20149;-92
2022/07/21 01:49:49;;;;;;;4.47;2.40;;;23.40;52.00;;;;;;4974388;28;20026;-93
2022/07/21 01:52:14;;;;;;;4.57;2.17;;;23.40;52.10;;;;;;4973743;28;20050;-92
2022/07/21 01:54:40;;;;;;;6.05;1.90;;;23.40;52.40;;;;;;4974428;28;20023;-92
2022/07/21 01:57:06;;;;;;;9.43;2.80;;;23.30;52.60;;;;;;4972988;28;20476;-92
2022/07/21 01:59:31;;;;;;;5.30;2.65;;;23.30;53.00;;;;;;4973018;28;20041;-92
2022/07/21 02:01:57;;;;;;;7.47;3.05;;;23.20;53.10;;;;;;4973186;28;20102;-93
2022/07/21 02:04:23;;;;;;;4.32;2.72;;;23.20;53.50;;;;;;4975269;28;20038;-92
2022/07/21 02:06:49;;;;;;;6.07;3.60;;;23.20;53.80;;;;;;4973042;28;20031;-93
2022/07/21 02:09:15;;;;;;;4.57;2.35;;;23.20;54.00;;;;;;4974622;28;20027;-92
2022/07/21 02:11:41;;;;;;;5.72;2.70;;;23.20;54.00;;;;;;4973812;28;20507;-92
2022/07/21 02:14:07;;;;;;;5.85;2.28;;;23.20;54.20;;;;;;4974079;28;20190;-93
2022/07/21 02:16:32;;;;;;;7.10;2.83;;;23.10;54.40;;;;;;4975791;28;20007;-93
2022/07/21 02:18:58;;;;;;;23.30;2.85;;;23.10;54.60;;;;;;4974949;28;20547;-93
2022/07/21 02:21:24;;;;;;;7.15;2.92;;;23.10;54.90;;;;;;4994596;28;20712;-93
2022/07/21 02:23:50;;;;;;;4.38;2.47;;;23.00;54.90;;;;;;4994489;28;20019;-92
2022/07/21 02:26:15;;;;;;;6.43;2.65;;;23.00;55.30;;;;;;4985766;28;20501;-93
2022/07/21 02:28:41;;;;;;;6.45;2.58;;;23.00;55.70;;;;;;4972489;28;20424;-93
2022/07/21 02:31:07;;;;;;;5.68;2.60;;;23.00;55.80;;;;;;4972419;28;20107;-94
2022/07/21 02:33:33;;;;;;;7.35;2.70;;;23.00;55.90;;;;;;4973789;28;20089;-93
2022/07/21 02:35:59;;;;;;;5.03;2.88;;;23.00;56.10;;;;;;4973674;28;20026;-93
2022/07/21 02:38:25;;;;;;;5.80;2.90;;;22.90;56.40;;;;;;4976564;28;20121;-93
2022/07/21 02:40:50;;;;;;;6.10;2.28;;;22.90;56.60;;;;;;4992299;28;20033;-93
2022/07/21 02:43:16;;;;;;;5.07;2.70;;;22.90;56.40;;;;;;4992339;28;20027;-93
2022/07/21 02:45:43;;;;;;;4.30;3.03;;;23.00;56.30;;;;;;4998841;28;20030;-92
2022/07/21 02:48:11;;;;;;;4.57;2.50;;;22.90;56.40;;;;;;4972081;28;20133;-92
2022/07/21 02:50:40;;;;;;;5.13;2.30;;;23.00;56.70;;;;;;4973062;28;20026;-93
2022/07/21 02:53:09;;;;;;;6.57;2.63;;;22.90;56.90;;;;;;4976456;28;20037;-93
2022/07/21 02:55:35;;;;;;;8.05;2.63;;;22.90;56.80;;;;;;4972426;28;20030;-90
2022/07/21 02:58:13;;;;;;;5.05;2.67;;;23.00;56.90;;;;;;4972451;28;20055;-91
2022/07/21 03:00:42;;;;;;;7.53;2.20;;;22.90;56.80;;;;;;4971871;28;20141;-91
2022/07/21 03:03:08;;;;;;;6.43;2.53;;;22.90;56.80;;;;;;4972472;28;20503;-91
2022/07/21 03:05:35;;;;;;;5.30;1.90;;;22.90;56.90;;;;;;4972140;28;20038;-91
2022/07/21 03:08:01;;;;;;;7.38;2.42;;;22.90;56.80;;;;;;4986790;28;20590;-90
2022/07/21 03:10:26;;;;;;;3.50;2.42;;;23.00;56.80;;;;;;4991399;28;20041;-92
2022/07/21 03:12:52;;;;;;;11.77;2.30;;;23.00;56.90;;;;;;4991936;28;20030;-91
2022/07/21 03:15:18;;;;;;;3.58;2.13;;;23.00;56.70;;;;;;4982929;28;20082;-91
2022/07/21 03:17:43;;;;;;;11.98;2.38;;;23.00;56.70;;;;;;4972502;28;20034;-90
2022/07/21 03:20:10;;;;;;;4.50;2.28;;;23.00;56.60;;;;;;4972315;28;20480;-91
2022/07/21 03:22:36;;;;;;;6.95;2.45;;;23.00;56.70;;;;;;4974467;28;20451;-91
2022/07/21 03:25:01;;;;;;;7.97;2.47;;;23.00;56.70;;;;;;4991465;28;20022;-92
2022/07/21 03:27:27;;;;;;;6.60;3.13;;;23.00;57.00;;;;;;4992419;28;20034;-91
2022/07/21 03:29:53;;;;;;;3.92;2.08;;;22.90;57.10;;;;;;4996297;28;20041;-92
2022/07/21 03:32:18;;;;;;;4.35;2.10;;;22.90;57.50;;;;;;4984308;28;20050;-92
2022/07/21 03:34:45;;;;;;;4.15;2.15;;;22.90;57.60;;;;;;4979269;28;20408;-91
2022/07/21 03:37:11;;;;;;;4.38;2.08;;;22.80;57.70;;;;;;4975603;28;20030;-91
2022/07/21 03:39:37;;;;;;;6.05;2.53;;;22.90;57.90;;;;;;4987422;28;20034;-91
2022/07/21 03:42:03;;;;;;;9.40;2.65;;;22.80;57.90;;;;;;4995349;28;20027;-92
2022/07/21 03:44:29;;;;;;;8.82;2.50;;;22.90;58.00;;;;;;4995423;28;20030;-92
2022/07/21 03:46:58;;;;;;;5.63;2.00;;;22.90;58.00;;;;;;4977185;28;20113;-91
2022/07/21 03:49:24;;;;;;;5.97;2.38;;;22.90;57.90;;;;;;4977090;28;20034;-92
2022/07/21 03:51:49;;;;;;;8.18;2.10;;;22.90;57.80;;;;;;4975287;28;20121;-91
2022/07/21 03:54:15;;;;;;;6.38;2.17;;;23.00;57.80;;;;;;4975160;28;20019;-91
2022/07/21 03:56:40;;;;;;;3.60;2.10;;;23.00;57.60;;;;;;4978886;28;20030;-90
2022/07/21 03:59:06;;;;;;;6.03;2.25;;;23.10;57.50;;;;;;4979331;28;20057;-91
2022/07/21 04:01:32;;;;;;;4.13;2.40;;;23.20;57.50;;;;;;4974948;28;20053;-91
2022/07/21 04:03:57;;;;;;;4.68;1.98;;;23.20;57.30;;;;;;4975476;28;20518;-90
2022/07/21 04:06:23;;;;;;;9.63;2.83;;;23.40;57.10;;;;;;4974012;28;20395;-91
2022/07/21 04:08:49;;;;;;;2.65;1.90;;;23.50;56.90;;;;;;4975262;28;20031;-90
2022/07/21 04:11:14;;;;;;;4.35;2.30;;;23.60;56.70;;;;;;4974740;28;20026;-91
2022/07/21 04:13:40;;;;;;;4.50;2.60;;;23.70;56.50;;;;;;4976129;28;20065;-90
2022/07/21 04:16:06;;;;;;;9.70;2.85;;;23.90;56.20;;;;;;4974085;28;20522;-91
2022/07/21 04:18:32;;;;;;;4.35;2.30;;;24.00;55.80;;;;;;4974625;28;20023;-89
2022/07/21 04:20:57;;;;;;;10.73;1.92;;;24.10;55.50;;;;;;4973657;28;20098;-91
2022/07/21 04:23:23;;;;;;;5.95;1.90;;;24.20;55.20;;;;;;4974382;28;20081;-91
2022/07/21 04:25:48;;;;;;;5.30;2.20;;;24.40;54.90;;;;;;4977131;28;20046;-91
2022/07/21 04:28:14;;;;;;;3.42;1.63;;;24.40;54.80;;;;;;4974485;28;20538;-91
2022/07/21 04:30:40;;;;;;;4.18;2.17;;;24.60;54.40;;;;;;4974108;28;20518;-90
2022/07/21 04:33:06;;;;;;;6.85;2.42;;;24.90;53.80;;;;;;4975328;28;20034;-91
2022/07/21 04:35:32;;;;;;;12.73;2.38;;;25.10;53.40;;;;;;4973895;28;20030;-92
2022/07/21 04:37:57;;;;;;;4.90;2.38;;;25.30;53.00;;;;;;4975127;28;20035;-91
2022/07/21 04:40:23;;;;;;;4.03;1.52;;;25.40;52.70;;;;;;4973076;28;20038;-90
2022/07/21 04:42:49;;;;;;;2.83;1.75;;;25.50;52.50;;;;;;4974340;28;20082;-92
2022/07/21 04:45:16;;;;;;;4.43;2.08;;;25.60;52.50;;;;;;4983436;28;20039;-92
2022/07/21 04:47:54;;;;;;;4.43;2.13;;;25.60;52.30;;;;;;4973375;28;20038;-92
2022/07/21 04:50:23;;;;;;;10.57;2.15;;;25.70;52.10;;;;;;4970785;28;20050;-94
2022/07/21 04:52:49;;;;;;;17.15;2.70;;;25.80;52.20;;;;;;4973862;28;20031;-94
2022/07/21 04:55:16;;;;;;;7.80;2.42;;;25.90;52.00;;;;;;4974247;28;20053;-95
2022/07/21 04:57:46;;;;;;;9.40;2.00;;;25.90;51.90;;;;;;4974960;28;20100;-94
2022/07/21 05:00:15;;;;;;;4.72;1.90;;;26.00;51.80;;;;;;4975432;28;20046;-94
2022/07/21 05:02:42;;;;;;;3.97;2.42;;;26.20;51.50;;;;;;4974310;28;20038;-93
2022/07/21 05:05:08;;;;;;;3.15;2.17;;;26.40;51.20;;;;;;4974563;28;20129;-94
2022/07/21 05:07:34;;;;;;;7.43;3.33;;;26.60;50.80;;;;;;4973856;28;20125;-94
2022/07/21 05:10:03;;;;;;;2.90;1.80;;;26.80;50.50;;;;;;4974085;28;20117;-93
2022/07/21 05:12:28;;;;;;;8.10;2.55;;;27.00;50.40;;;;;;4974157;28;20058;-94
2022/07/21 05:14:54;;;;;;;4.90;2.13;;;27.10;50.20;;;;;;4973449;28;20069;-95
2022/07/21 05:17:19;;;;;;;6.78;1.83;;;27.20;49.90;;;;;;4975793;28;20085;-95
2022/07/21 05:19:49;;;;;;;7.35;2.15;;;27.40;49.30;;;;;;4973405;28;20451;-94
2022/07/21 05:22:18;;;;;;;7.75;1.80;;;27.70;48.70;;;;;;4975648;28;20030;-96
2022/07/21 05:24:44;;;;;;;10.10;2.00;;;28.10;48.60;;;;;;4989947;28;20011;-96
2022/07/21 05:27:10;;;;;;;4.32;2.85;;;28.40;47.10;;;;;;4982492;28;20052;-96
2022/07/21 05:29:35;;;;;;;6.65;2.40;;;28.60;45.00;;;;;;4978730;28;20492;-94
2022/07/21 05:32:01;;;;;;;8.43;2.30;;;28.70;44.10;;;;;;4973034;28;20041;-94
2022/07/21 05:34:27;;;;;;;5.15;2.28;;;28.80;43.40;;;;;;4975827;28;20023;-93
2022/07/21 05:36:55;;;;;;;9.25;2.03;;;29.00;43.10;;;;;;4973792;28;20037;-93
2022/07/21 05:39:21;;;;;;;9.50;2.47;;;29.10;42.60;;;;;;4973314;28;20096;-94
2022/07/21 05:41:47;;;;;;;16.15;2.63;;;29.10;42.10;;;;;;4973234;28;20050;-94
2022/07/21 05:44:12;;;;;;;8.70;2.65;;;29.20;41.90;;;;;;4972642;28;20046;-92
2022/07/21 05:46:38;;;;;;;5.43;1.95;;;29.40;41.70;;;;;;4993856;28;20019;-93
2022/07/21 05:49:04;;;;;;;5.53;2.38;;;29.40;41.40;;;;;;4995754;28;20038;-95
2022/07/21 05:51:30;;;;;;;4.95;2.13;;;29.50;41.30;;;;;;4989823;28;20023;-93
2022/07/21 05:53:55;;;;;;;3.40;2.10;;;29.70;41.00;;;;;;4959123;28;20062;-94
2022/07/21 05:56:21;;;;;;;10.68;2.10;;;29.90;40.40;;;;;;4974499;28;20289;-95
2022/07/21 05:58:47;;;;;;;4.45;2.00;;;30.30;40.20;;;;;;4974975;28;20035;-90
2022/07/21 06:01:12;;;;;;;7.60;2.05;;;30.90;39.10;;;;;;4973664;28;20046;-94
2022/07/21 06:03:49;;;;;;;10.68;2.33;;;31.70;38.30;;;;;;4974247;28;20050;-92
2022/07/21 06:06:18;;;;;;;10.63;2.42;;;32.60;36.70;;;;;;4973679;28;20023;-92
2022/07/21 06:08:46;;;;;;;5.18;2.63;;;33.40;35.50;;;;;;4973887;28;20055;-91
2022/07/21 06:11:15;;;;;;;5.10;2.63;;;34.10;34.60;;;;;;4972758;28;20030;-91
2022/07/21 06:13:41;;;;;;;6.95;2.67;;;34.60;33.60;;;;;;4976164;28;20034;-93
2022/07/21 06:16:07;;;;;;;3.67;1.92;;;35.10;32.70;;;;;;4974678;28;20038;-91
2022/07/21 06:18:33;;;;;;;7.30;1.80;;;35.80;32.10;;;;;;4975872;28;20055;-94
2022/07/21 06:21:00;;;;;;;4.95;2.28;;;36.50;31.20;;;;;;4990456;28;20219;-95
2022/07/21 06:23:26;;;;;;;9.05;2.00;;;37.50;29.90;;;;;;4995504;28;20029;-93
2022/07/21 06:25:52;;;;;;;3.38;2.00;;;37.90;29.10;;;;;;4993757;28;20492;-95
2022/07/21 06:28:18;;;;;;;10.27;2.33;;;38.40;28.80;;;;;;4983192;28;20038;-95
2022/07/21 06:30:44;;;;;;;7.80;2.28;;;38.80;28.50;;;;;;4982255;28;20054;-94
2022/07/21 06:33:10;;;;;;;4.63;1.95;;;39.40;28.00;;;;;;4975752;28;20058;-95
2022/07/21 06:35:35;;;;;;;3.85;2.10;;;39.80;27.80;;;;;;4973793;28;20440;-96
2022/07/21 06:38:01;;;;;;;10.70;2.58;;;39.90;26.90;;;;;;4976601;28;20038;-96
2022/07/21 06:40:27;;;;;;;4.50;2.30;;;40.10;26.70;;;;;;4975902;28;20026;-96
2022/07/21 06:42:53;;;;;;;5.28;2.83;;;40.50;26.50;;;;;;4980008;28;20027;-96
2022/07/21 06:45:19;;;;;;;7.40;2.10;;;40.70;26.20;;;;;;4987253;28;20041;-96
2022/07/21 06:47:44;;;;;;;3.70;2.10;;;40.50;25.90;;;;;;4976209;28;20126;-96
2022/07/21 06:50:12;;;;;;;3.42;2.10;;;39.90;26.50;;;;;;4980627;28;20030;-96
2022/07/21 06:52:38;;;;;;;7.05;2.70;;;40.50;26.00;;;;;;4974226;28;20026;-96
2022/07/21 06:55:06;;;;;;;3.75;2.08;;;40.30;26.20;;;;;;4984730;28;20039;-96
2022/07/21 06:57:39;;;;;;;6.63;2.13;;;40.70;25.90;;;;;;4980034;28;20023;-96
2022/07/21 07:00:07;;;;;;;3.25;2.17;;;41.10;25.60;;;;;;4973569;28;20043;-96
2022/07/21 07:02:33;;;;;;;5.57;2.28;;;41.80;25.00;;;;;;4965802;28;20034;-96
2022/07/21 07:04:59;;;;;;;3.40;1.88;;;41.30;25.40;;;;;;4989852;28;20039;-96
2022/07/21 07:07:24;;;;;;;4.20;1.90;;;41.20;25.50;;;;;;4984617;28;20060;-96
2022/07/21 07:09:50;;;;;;;6.80;2.00;;;41.20;25.40;;;;;;4989351;28;20026;-96
2022/07/21 07:12:16;;;;;;;6.05;2.13;;;41.70;25.00;;;;;;4980815;28;20042;-96
2022/07/21 07:14:41;;;;;;;4.40;2.38;;;41.50;25.30;;;;;;4977629;28;20031;-95
2022/07/21 07:17:07;;;;;;;6.47;2.22;;;41.50;25.50;;;;;;4973765;28;20081;-89
2022/07/21 07:19:33;;;;;;;4.70;2.35;;;41.80;25.20;;;;;;4970567;28;20038;-90
2022/07/21 07:21:59;;;;;;;6.63;2.33;;;41.80;25.00;;;;;;4974345;28;20094;-96
2022/07/21 07:24:25;;;;;;;7.60;2.78;;;42.00;25.00;;;;;;4980202;28;20033;-95
2022/07/21 07:27:00;;;;;;;7.68;2.40;;;42.00;25.50;;;;;;4963422;28;20027;-95
2022/07/21 07:29:25;;;;;;;8.70;2.60;;;42.20;25.20;;;;;;4979864;28;20043;-94
2022/07/21 07:31:51;;;;;;;8.63;2.80;;;42.20;25.30;;;;;;4972633;28;20027;-94
2022/07/21 07:34:17;;;;;;;5.93;2.92;;;42.20;25.30;;;;;;4971160;28;20035;-95
2022/07/21 07:36:42;;;;;;;8.27;2.90;;;42.10;25.30;;;;;;4971429;28;20035;-93
2022/07/21 07:39:08;;;;;;;6.20;2.80;;;42.00;25.30;;;;;;4971048;28;20074;-93
2022/07/21 07:41:33;;;;;;;11.13;2.35;;;42.20;25.20;;;;;;4971190;28;20126;-93
2022/07/21 07:44:02;;;;;;;7.50;2.85;;;42.40;25.40;;;;;;4972421;28;20022;-94
2022/07/21 07:46:28;;;;;;;8.38;2.72;;;42.40;25.30;;;;;;4971258;28;20092;-92
2022/07/21 07:48:55;;;;;;;8.05;2.72;;;42.60;25.00;;;;;;4971132;28;20031;-92
2022/07/21 07:51:20;;;;;;;10.93;3.00;;;42.60;25.00;;;;;;4971281;28;20050;-92
2022/07/21 07:53:46;;;;;;;8.20;2.45;;;42.50;24.90;;;;;;4971121;28;20054;-92
2022/07/21 07:56:12;;;;;;;5.22;2.50;;;42.50;25.10;;;;;;4971226;28;20034;-93
2022/07/21 07:58:37;;;;;;;12.05;2.80;;;42.60;24.70;;;;;;4970974;28;20100;-92
2022/07/21 08:01:03;;;;;;;14.20;2.72;;;42.60;25.00;;;;;;4971029;28;20078;-94
2022/07/21 08:03:30;;;;;;;5.85;2.65;;;42.50;25.10;;;;;;4976014;28;20377;-94
2022/07/21 08:06:02;;;;;;;4.35;2.60;;;42.40;25.10;;;;;;4976328;28;20595;-96
2022/07/21 08:08:28;;;;;;;7.75;2.30;;;42.70;25.00;;;;;;4983756;28;20050;-95
2022/07/21 08:10:54;;;;;;;7.47;2.30;;;42.70;24.80;;;;;;4975022;28;20035;-95
2022/07/21 08:13:19;;;;;;;8.50;2.60;;;42.60;25.00;;;;;;4982615;28;20022;-95
2022/07/21 08:15:48;;;;;;;5.05;2.47;;;42.60;25.00;;;;;;4981221;28;20065;-94
2022/07/21 08:18:15;;;;;;;8.30;2.50;;;42.80;24.90;;;;;;4979921;28;20026;-94
2022/07/21 08:20:41;;;;;;;5.03;2.30;;;43.00;24.50;;;;;;4975391;28;20031;-94
2022/07/21 08:23:07;;;;;;;2.22;1.85;;;43.10;24.30;;;;;;4977744;28;20023;-96
2022/07/21 08:25:34;;;;;;;11.63;2.47;;;43.20;24.50;;;;;;4975757;28;20039;-94
2022/07/21 08:27:59;;;;;;;9.27;2.83;;;43.40;24.40;;;;;;4974908;28;20385;-95
2022/07/21 08:30:25;;;;;;;15.30;3.67;;;43.30;24.50;;;;;;4974903;28;20039;-95
2022/07/21 08:32:51;;;;;;;4.60;2.85;;;43.40;24.40;;;;;;4974544;28;20085;-95
2022/07/21 08:35:18;;;;;;;8.45;2.78;;;43.40;24.40;;;;;;4974530;28;20468;-96
2022/07/21 08:37:53;;;;;;;9.20;2.40;;;43.10;24.40;;;;;;4977384;28;20066;-95
2022/07/21 08:40:23;;;;;;;8.82;2.50;;;43.00;24.40;;;;;;4973304;28;20114;-96
2022/07/21 08:42:50;;;;;;;9.05;2.97;;;43.10;24.30;;;;;;4974597;28;20054;-95
2022/07/21 08:45:16;;;;;;;3.80;2.05;;;43.00;24.10;;;;;;4981437;28;20026;-96
2022/07/21 08:47:42;;;;;;;2.80;2.40;;;42.80;24.30;;;;;;4959205;28;20041;-91
2022/07/21 08:50:08;;;;;;;3.67;2.60;;;42.80;24.50;;;;;;4975093;28;20050;-96
2022/07/21 08:52:34;;;;;;;5.45;2.45;;;42.90;24.40;;;;;;4976106;28;20038;-96
2022/07/21 08:55:09;;;;;;;4.00;2.17;;;43.10;24.70;;;;;;4979451;28;20114;-95
2022/07/21 08:57:39;;;;;;;3.50;2.45;;;43.30;24.50;;;;;;4990053;28;20229;-96
2022/07/21 09:00:06;;;;;;;4.85;1.95;;;43.50;24.50;;;;;;4983077;28;20034;-96
2022/07/21 09:02:34;;;;;;;5.63;2.00;;;43.70;24.30;;;;;;4959930;28;20031;-90
2022/07/21 09:05:00;;;;;;;2.45;1.80;;;43.70;24.20;;;;;;4971713;28;20020;-91
2022/07/21 09:07:28;;;;;;;8.32;2.80;;;43.80;24.00;;;;;;4971920;28;20031;-90
2022/07/21 09:09:56;;;;;;;6.85;2.17;;;43.80;24.10;;;;;;4970486;28;20487;-93
2022/07/21 09:12:21;;;;;;;6.30;2.20;;;43.60;24.10;;;;;;4990162;28;20030;-92
2022/07/21 09:14:49;;;;;;;4.05;2.03;;;43.50;24.20;;;;;;4995021;28;20018;-96
2022/07/21 09:17:17;;;;;;;5.32;2.60;;;43.60;24.10;;;;;;4997956;28;20030;-94
2022/07/21 09:19:45;;;;;;;5.60;2.13;;;43.60;24.20;;;;;;4988296;28;20023;-93
2022/07/21 09:22:19;;;;;;;15.50;2.30;;;43.30;24.10;;;;;;4981566;28;20039;-88
2022/07/21 09:24:50;;;;;;;5.03;2.33;;;43.20;24.10;;;;;;4973908;28;20030;-89
2022/07/21 09:27:22;;;;;;;3.63;2.40;;;43.40;24.20;;;;;;4987915;28;20054;-95
2022/07/21 09:29:58;;;;;;;3.38;1.75;;;43.60;24.20;;;;;;4995195;28;20363;-93
2022/07/21 09:32:30;;;;;;;7.97;2.38;;;43.70;24.00;;;;;;4984615;28;20015;-94
2022/07/21 09:35:14;;;;;;;2.88;2.08;;;43.70;24.10;;;;;;4984745;28;20026;-92
2022/07/21 09:37:41;;;;;;;12.10;2.75;;;43.80;24.10;;;;;;4992537;28;20038;-90
2022/07/21 09:40:13;;;;;;;7.15;2.40;;;44.00;23.90;;;;;;4992300;28;20042;-92
2022/07/21 09:42:47;;;;;;;5.18;2.30;;;44.00;23.60;;;;;;4988244;28;20038;-91
2022/07/21 09:45:19;;;;;;;4.65;2.08;;;44.20;23.60;;;;;;4973889;28;20043;-92
2022/07/21 09:47:46;;;;;;;3.90;2.33;;;44.00;23.70;;;;;;4973543;28;20451;-93
2022/07/21 09:50:13;;;;;;;10.43;2.20;;;43.90;23.70;;;;;;4974435;28;20229;-95
2022/07/21 09:52:44;;;;;;;4.55;2.28;;;43.90;23.60;;;;;;4976034;28;20033;-95
2022/07/21 09:55:12;;;;;;;3.20;2.20;;;43.50;23.80;;;;;;4979473;28;20023;-94
2022/07/21 09:57:39;;;;;;;3.83;1.95;;;43.40;23.80;;;;;;4976742;28;20078;-93
2022/07/21 10:00:08;;;;;;;7.32;2.08;;;43.50;23.70;;;;;;4964060;28;20051;-96
2022/07/21 10:02:34;;;;;;;5.80;1.77;;;43.80;23.70;;;;;;4956263;28;20046;-95
2022/07/21 10:05:03;;;;;;;9.98;2.38;;;44.00;23.70;;;;;;4976804;28;20026;-92
2022/07/21 10:07:29;;;;;;;5.55;1.98;;;44.00;23.50;;;;;;4965407;28;20067;-89
2022/07/21 10:09:56;;;;;;;3.50;1.80;;;43.80;23.60;;;;;;4973464;28;20026;-93
2022/07/21 10:12:23;;;;;;;7.30;2.63;;;43.80;23.10;;;;;;4975865;28;20019;-93
2022/07/21 10:14:50;;;;;;;12.70;2.33;;;43.30;23.30;;;;;;4974212;28;20109;-94
2022/07/21 10:17:18;;;;;;;4.72;1.83;;;42.60;23.70;;;;;;4975327;28;20587;-88
2022/07/21 10:20:08;;;;;;;3.55;2.08;;;41.90;24.00;;;;;;4972320;28;20073;-89
2022/07/21 10:22:42;;;;;;;11.40;2.28;;;41.30;24.70;;;;;;4976302;28;20042;-89
2022/07/21 10:25:08;;;;;;;;;;;41.10;25.30;;;;;;4974145;28;20133;-87
2022/07/21 10:27:34;;;;;;;9.32;1.92;;;40.70;24.70;;;;;;4980875;28;19968;-88
2022/07/21 10:30:02;;;;;;;5.68;1.90;;;40.30;25.10;;;;;;4975112;28;20065;-87
2022/07/21 10:32:33;;;;;;;10.75;2.03;;;40.00;25.20;;;;;;4966048;28;20035;-88
2022/07/21 10:35:23;;;;;;;3.42;2.03;;;39.90;25.70;;;;;;4964800;28;20053;-87
2022/07/21 10:37:49;;;;;;;10.00;2.10;;;39.70;25.70;;;;;;4951905;28;20042;-88
2022/07/21 10:40:21;;;;;;;7.05;3.13;;;39.40;25.80;;;;;;4947646;28;20050;-90
2022/07/21 10:42:59;;;;;;;4.95;2.10;;;39.40;26.30;;;;;;4953098;28;20050;-87
2022/07/21 10:45:30;;;;;;;5.53;2.00;;;39.30;26.00;;;;;;4955730;28;20079;-89
2022/07/21 10:47:56;;;;;;;4.90;2.42;;;39.30;26.20;;;;;;4954047;28;20122;-88
2022/07/21 10:50:40;;;;;;;3.72;1.95;;;39.10;25.70;;;;;;4956781;28;20049;-89
2022/07/21 10:53:12;;;;;;;8.35;2.28;;;38.80;26.20;;;;;;4964824;28;20086;-88
2022/07/21 10:55:38;;;;;;;11.05;2.17;;;38.60;26.20;;;;;;4948014;28;20044;-88
2022/07/21 10:58:14;;;;;;;3.88;1.77;;;38.10;26.40;;;;;;4953860;28;20409;-89
2022/07/21 11:00:43;;;;;;;7.03;2.22;;;38.00;27.10;;;;;;4951888;28;20051;-87
2022/07/21 11:03:17;;;;;;;7.25;2.05;;;37.90;26.70;;;;;;4951653;28;20153;-89
2022/07/21 11:06:23;;;;;;;6.47;2.28;;;38.00;26.90;;;;;;4955777;28;20042;-91
2022/07/21 11:09:03;;;;;;;7.40;2.17;;;38.00;27.00;;;;;;4953601;28;20054;-88
2022/07/21 11:11:30;;;;;;;7.28;2.40;;;38.00;26.90;;;;;;4959705;28;20040;-90
2022/07/21 11:14:12;;;;;;;9.70;2.58;;;38.00;26.50;;;;;;4957731;28;20794;-91
2022/07/21 11:16:41;;;;;;;21.63;2.45;;;38.00;26.00;;;;;;4955410;28;20126;-89
2022/07/21 11:19:29;;;;;;;6.85;1.95;;;38.00;26.20;;;;;;4965753;28;20065;-88
2022/07/21 11:21:56;;;;;;;4.80;2.05;;;38.00;26.50;;;;;;4947820;28;20042;-89
2022/07/21 11:24:23;;;;;;;10.00;2.05;;;38.10;26.70;;;;;;4960148;28;20054;-89
2022/07/21 11:27:04;;;;;;;8.85;2.53;;;38.10;26.00;;;;;;4953343;28;21329;-90
2022/07/21 11:29:32;;;;;;;14.95;3.53;;;38.00;26.10;;;;;;4965135;28;20047;-87
2022/07/21 11:32:01;;;;;;;10.05;2.40;;;37.90;25.40;;;;;;4948306;28;20157;-90
2022/07/21 11:34:45;;;;;;;9.43;2.30;;;37.80;24.50;;;;;;4940546;28;20405;-90
2022/07/21 11:37:16;;;;;;;10.70;2.20;;;37.70;24.80;;;;;;4947646;28;20063;-90
2022/07/21 11:39:42;;;;;;;11.27;2.38;;;37.70;24.70;;;;;;4949295;28;20034;-89
2022/07/21 11:42:11;;;;;;;10.43;2.15;;;37.70;24.80;;;;;;4951594;28;20039;-87
2022/07/21 11:44:37;;;;;;;9.27;2.17;;;37.80;24.10;;;;;;4948178;28;20043;-89
2022/07/21 11:47:06;;;;;;;6.18;2.17;;;38.00;24.60;;;;;;4958362;28;20050;-90
2022/07/21 11:49:33;;;;;;;8.68;2.33;;;38.20;24.80;;;;;;4951985;28;20396;-89
2022/07/21 11:52:03;;;;;;;12.75;3.17;;;38.40;25.20;;;;;;4951847;28;20046;-90
2022/07/21 11:54:51;;;;;;;7.65;2.50;;;38.50;25.00;;;;;;4955250;28;20042;-89
2022/07/21 11:57:18;;;;;;;4.85;2.10;;;38.40;25.50;;;;;;4949747;28;20035;-94
2022/07/21 11:59:44;;;;;;;7.20;2.13;;;38.40;24.60;;;;;;4964724;28;20053;-90
2022/07/21 12:02:14;;;;;;;6.65;2.05;;;38.30;24.60;;;;;;4954882;28;20041;-90
2022/07/21 12:05:01;;;;;;;7.50;2.17;;;38.10;24.60;;;;;;4968065;28;20042;-91
2022/07/21 12:07:34;;;;;;;7.95;1.88;;;38.10;25.40;;;;;;4973239;28;20038;-91
2022/07/21 12:10:10;;;;;;;7.63;2.33;;;38.10;26.10;;;;;;4964143;28;20035;-91
2022/07/21 12:12:43;;;;;;;8.73;2.67;;;38.30;25.70;;;;;;4957270;28;20490;-90
2022/07/21 12:15:33;;;;;;;7.75;2.88;;;38.50;25.10;;;;;;4960237;28;20077;-91
2022/07/21 12:18:04;;;;;;;5.40;2.22;;;38.60;24.80;;;;;;4972032;28;20093;-91
2022/07/21 12:20:31;;;;;;;11.77;3.22;;;38.60;24.80;;;;;;4974407;28;20023;-90
2022/07/21 12:22:58;;;;;;;5.57;2.65;;;38.60;25.00;;;;;;4974368;28;20027;-92
2022/07/21 12:25:38;;;;;;;4.68;2.30;;;38.50;25.60;;;;;;4974017;28;20380;-92
2022/07/21 12:28:07;;;;;;;8.98;2.58;;;38.60;25.20;;;;;;4974631;28;20030;-92
2022/07/21 12:30:41;;;;;;;12.02;2.40;;;38.70;24.30;;;;;;4976129;28;20031;-93
2022/07/21 12:33:15;;;;;;;8.15;2.17;;;38.70;24.00;;;;;;4974640;28;20057;-92
2022/07/21 12:35:48;;;;;;;5.68;2.60;;;38.50;24.60;;;;;;4974711;28;20802;-91
2022/07/21 12:38:19;;;;;;;7.75;2.67;;;38.40;24.60;;;;;;4975754;28;20443;-92
2022/07/21 12:40:47;;;;;;;9.93;2.47;;;38.30;24.70;;;;;;4976466;28;20475;-89
2022/07/21 12:43:14;;;;;;;6.18;2.20;;;38.40;24.40;;;;;;4975265;28;20030;-92
2022/07/21 12:46:00;;;;;;;6.05;2.10;;;38.20;24.30;;;;;;4980688;28;20372;-90
2022/07/21 12:48:28;;;;;;;11.88;2.03;;;38.10;24.50;;;;;;4974502;28;20113;-90
2022/07/21 12:51:09;;;;;;;4.88;2.35;;;38.10;24.50;;;;;;4977806;28;20111;-91
2022/07/21 12:53:41;;;;;;;10.73;3.65;;;38.10;24.80;;;;;;4974663;28;20478;-91